TimeEDT,TemperatureF,Dew PointF,Humidity,Sea Level PressureIn,VisibilityMPH,Wind Direction,Wind SpeedMPH,Gust SpeedMPH,PrecipitationIn,Events,Conditions,WindDirDegrees,DateUTC
12:53 AM,78.1,66.9,68,29.93,10.0,ENE,3.5,-,N/A,,Partly Cloudy,60,2013-10-16 04:53:00
1:53 AM,77.0,66.9,71,29.92,10.0,Calm,Calm,-,N/A,,Partly Cloudy,0,2013-10-16 05:53:00
2:53 AM,75.0,68.0,79,29.91,10.0,Calm,Calm,-,N/A,,Partly Cloudy,0,2013-10-16 06:53:00
3:53 AM,73.9,68.0,82,29.89,10.0,NNW,3.5,-,N/A,,Scattered Clouds,330,2013-10-16 07:53:00
4:53 AM,75.0,68.0,79,29.89,10.0,Calm,Calm,-,N/A,,Scattered Clouds,0,2013-10-16 08:53:00
5:53 AM,73.9,69.1,85,29.90,10.0,NNW,3.5,-,N/A,,Scattered Clouds,340,2013-10-16 09:53:00
6:53 AM,73.9,68.0,82,29.92,10.0,NW,3.5,-,N/A,,Scattered Clouds,310,2013-10-16 10:53:00
7:53 AM,73.9,69.1,85,29.93,10.0,NNW,4.6,-,N/A,,Partly Cloudy,340,2013-10-16 11:53:00
8:53 AM,75.9,71.1,85,29.94,10.0,NNE,5.8,-,N/A,,Partly Cloudy,20,2013-10-16 12:53:00
9:53 AM,82.0,71.1,69,29.95,10.0,Variable,4.6,-,N/A,,Mostly Cloudy,0,2013-10-16 13:53:00
10:53 AM,82.9,71.1,67,29.95,10.0,North,9.2,-,N/A,,Scattered Clouds,350,2013-10-16 14:53:00
11:53 AM,82.9,71.1,67,29.94,10.0,Variable,4.6,-,N/A,,Scattered Clouds,0,2013-10-16 15:53:00
12:53 PM,82.0,68.0,62,29.93,10.0,NNE,8.1,-,N/A,,Mostly Cloudy,30,2013-10-16 16:53:00
1:53 PM,82.0,68.0,62,29.92,10.0,NE,8.1,-,N/A,,Mostly Cloudy,50,2013-10-16 17:53:00
2:53 PM,80.1,69.1,69,29.91,10.0,East,12.7,-,N/A,,Mostly Cloudy,80,2013-10-16 18:53:00
3:53 PM,82.0,68.0,62,29.89,10.0,ENE,10.4,-,0.00,,Mostly Cloudy,70,2013-10-16 19:53:00
4:53 PM,82.0,66.9,60,29.89,10.0,ENE,8.1,-,N/A,,Mostly Cloudy,60,2013-10-16 20:53:00
5:53 PM,82.0,66.9,60,29.89,10.0,ENE,10.4,-,N/A,,Scattered Clouds,70,2013-10-16 21:53:00
6:53 PM,79.0,68.0,69,29.91,10.0,ENE,9.2,-,N/A,,Scattered Clouds,60,2013-10-16 22:53:00
7:53 PM,79.0,68.0,69,29.92,10.0,East,8.1,-,N/A,,Scattered Clouds,80,2013-10-16 23:53:00
8:53 PM,79.0,68.0,69,29.94,10.0,ENE,6.9,-,N/A,,Scattered Clouds,70,2013-10-17 00:53:00
9:53 PM,79.0,69.1,72,29.95,10.0,ENE,8.1,-,N/A,,Mostly Cloudy,70,2013-10-17 01:53:00
10:53 PM,79.0,69.1,72,29.95,10.0,East,5.8,-,N/A,,Partly Cloudy,80,2013-10-17 02:53:00
11:53 PM,79.0,69.1,72,29.94,10.0,East,9.2,-,N/A,,Partly Cloudy,90,2013-10-17 03:53:00